KTM weather

Tribhuvan International Airport
Kathmandu, Bagmati, Nepal

Public forecast

Using degrees Celsius for public forecast. Weather courtesy of forecast.io.

Current aviation weather report (METAR) for Tribhuvan International Airport

Retrieved 2019/10/21 03:20 UTC (8 minutes ago):

VNKT 210320Z VRB02KT 5000 BR FEW015 SCT030 BKN100 19/17 Q1021 NOSIG

Aviation forecast (TAF) for Tribhuvan International Airport

Retrieved 2019-10-21 00:39 UTC (3 hours ago):

TAF TAF VNKT 202300Z 2100/2124 00000KT 4000 BR FEW010 SCT025 BKN100 BECMG 2104/2105 13003KT 7000 FEW015 SCT100 BECMG 2107/2108 28008KT 9999 FEW015 SCT030 BKN100 PROB30 2106/2112 27010KT 5000 -TSRA FEW025CB BECMG 2113/2114 18003KT 7000 FEW015 SCT025 BKN100 BECMG 2117/2118 VRB02KT 6000 FEW015 SCT025